createdAt,value
2019-04-04T00:00:42.960Z,14.23
2019-04-04T00:03:11.297Z,15.57
2019-04-04T00:05:39.714Z,15.90
2019-04-04T00:08:08.091Z,14.30
2019-04-04T00:10:36.506Z,15.03
2019-04-04T00:13:04.886Z,14.87
2019-04-04T00:15:33.303Z,15.10
2019-04-04T00:18:01.720Z,14.07
2019-04-04T00:20:31.769Z,15.90
2019-04-04T00:23:00.154Z,15.37
2019-04-04T00:25:28.528Z,16.13
2019-04-04T00:27:57.070Z,16.53
2019-04-04T00:30:25.527Z,15.63
2019-04-04T00:32:53.905Z,16.60
2019-04-04T00:35:22.322Z,15.77
2019-04-04T00:37:50.732Z,15.97
2019-04-04T00:40:19.138Z,16.50
2019-04-04T00:42:47.866Z,16.80
2019-04-04T00:45:16.720Z,16.60
2019-04-04T00:47:45.120Z,16.90
2019-04-04T00:50:13.528Z,16.93
2019-04-04T00:52:41.925Z,17.67
2019-04-04T00:55:10.366Z,17.07
2019-04-04T00:57:38.834Z,18.57
2019-04-04T01:00:08.485Z,17.87
2019-04-04T01:02:36.952Z,17.83
2019-04-04T01:05:06.205Z,18.23
2019-04-04T01:07:35.821Z,17.77
2019-04-04T01:10:06.818Z,18.10
2019-04-04T01:12:35.240Z,17.33
2019-04-04T01:15:04.103Z,17.67
2019-04-04T01:17:33.018Z,18.57
2019-04-04T01:20:02.531Z,19.47
2019-04-04T01:22:31.001Z,17.70
2019-04-04T01:25:01.038Z,18.27
2019-04-04T01:27:29.429Z,17.97
2019-04-04T01:29:57.827Z,18.33
2019-04-04T01:32:26.201Z,17.97
2019-04-04T01:34:54.606Z,19.37
2019-04-04T01:37:22.998Z,18.43
2019-04-04T01:39:51.411Z,19.13
2019-04-04T01:42:19.795Z,19.03
2019-04-04T01:44:48.219Z,19.60
2019-04-04T01:47:16.955Z,19.00
2019-04-04T01:49:46.452Z,19.77
2019-04-04T01:52:14.865Z,18.20
2019-04-04T01:54:43.266Z,19.37
2019-04-04T01:57:11.665Z,19.73
2019-04-04T01:59:40.048Z,19.10
2019-04-04T02:02:08.468Z,19.23
2019-04-04T02:04:36.849Z,19.30
2019-04-04T02:07:05.271Z,19.13
2019-04-04T02:09:34.600Z,17.43
2019-04-04T02:12:03.210Z,18.47
2019-04-04T02:14:31.564Z,18.20
2019-04-04T02:16:59.948Z,17.70
2019-04-04T02:19:28.360Z,17.47
2019-04-04T02:21:57.850Z,17.30
2019-04-04T02:24:26.782Z,17.30
2019-04-04T02:26:55.158Z,16.70
2019-04-04T02:29:23.556Z,16.73
2019-04-04T02:31:56.491Z,17.00
2019-04-04T02:34:24.871Z,15.63
2019-04-04T02:36:53.389Z,16.17
2019-04-04T02:39:21.798Z,15.90
2019-04-04T02:41:50.191Z,14.17
2019-04-04T02:44:18.575Z,15.23
2019-04-04T02:46:46.990Z,14.07
2019-04-04T02:49:15.372Z,14.87
2019-04-04T02:51:43.784Z,14.37
2019-04-04T02:54:12.251Z,14.60
2019-04-04T02:56:40.702Z,14.63
2019-04-04T02:59:09.110Z,14.50
2019-04-04T03:01:37.483Z,14.13
2019-04-04T03:04:05.897Z,14.47
2019-04-04T03:06:34.300Z,13.83
2019-04-04T03:09:02.704Z,14.27
2019-04-04T03:11:31.120Z,13.10
2019-04-04T03:14:03.375Z,13.10
2019-04-04T03:16:29.539Z,14.63
2019-04-04T03:18:57.932Z,15.07
2019-04-04T03:21:26.336Z,14.23
2019-04-04T03:23:54.711Z,14.07
2019-04-04T03:26:23.126Z,13.63
2019-04-04T03:28:51.576Z,14.17
2019-04-04T03:31:19.977Z,12.60
2019-04-04T03:33:48.379Z,13.97
2019-04-04T03:36:16.778Z,13.40
2019-04-04T03:38:47.161Z,14.90
2019-04-04T03:41:15.273Z,13.40
2019-04-04T03:43:47.988Z,13.13
2019-04-04T03:46:13.771Z,12.90
2019-04-04T03:48:42.163Z,12.50
2019-04-04T03:51:10.593Z,12.10
2019-04-04T03:53:40.640Z,12.43
2019-04-04T03:56:09.047Z,11.67
2019-04-04T03:58:37.520Z,12.03
2019-04-04T04:01:05.937Z,11.60
2019-04-04T04:03:34.343Z,12.00
2019-04-04T04:06:08.373Z,12.20
2019-04-04T04:08:33.740Z,11.97
2019-04-04T04:11:04.777Z,12.37
2019-04-04T04:13:32.171Z,12.37
2019-04-04T04:16:03.738Z,12.93
2019-04-04T04:18:30.669Z,12.53
2019-04-04T04:20:59.054Z,12.40
2019-04-04T04:23:27.465Z,12.63
2019-04-04T04:25:55.838Z,12.97
2019-04-04T04:28:24.254Z,12.93
2019-04-04T04:30:52.658Z,12.27
2019-04-04T04:33:21.040Z,12.13
2019-04-04T04:35:49.453Z,12.87
2019-04-04T04:38:17.862Z,13.30
2019-04-04T04:40:47.462Z,11.43
2019-04-04T04:43:16.496Z,12.10
2019-04-04T04:45:45.232Z,12.50
2019-04-04T04:48:13.702Z,12.43
2019-04-04T04:50:42.073Z,12.57
2019-04-04T04:53:10.479Z,12.57
2019-04-04T04:55:38.855Z,12.13
2019-04-04T04:58:09.796Z,12.27
2019-04-04T05:00:37.391Z,11.30
2019-04-04T05:03:05.762Z,11.87
2019-04-04T05:05:34.180Z,13.13
2019-04-04T05:08:02.570Z,12.00
2019-04-04T05:10:30.988Z,12.53
2019-04-04T05:12:59.403Z,12.83
2019-04-04T05:15:27.812Z,12.00
2019-04-04T05:17:56.227Z,11.10
2019-04-04T05:20:25.532Z,11.80
2019-04-04T05:22:54.696Z,11.10
2019-04-04T05:25:23.095Z,11.57
2019-04-04T05:27:51.511Z,11.63
2019-04-04T05:30:20.467Z,11.40
2019-04-04T05:32:50.022Z,10.73
2019-04-04T05:35:19.080Z,11.60
2019-04-04T05:37:47.553Z,11.20
2019-04-04T05:40:16.001Z,10.80
2019-04-04T05:42:44.379Z,11.00
2019-04-04T05:45:14.290Z,12.00
2019-04-04T05:47:42.838Z,11.50
2019-04-04T05:50:12.032Z,11.43
2019-04-04T05:52:40.589Z,11.90
2019-04-04T05:55:10.924Z,11.50
2019-04-04T05:57:39.052Z,11.80
2019-04-04T06:00:08.406Z,11.37
2019-04-04T06:02:36.949Z,11.87
2019-04-04T06:05:06.502Z,10.63
2019-04-04T06:07:36.474Z,11.17
2019-04-04T06:10:06.504Z,10.97
2019-04-04T06:12:37.350Z,10.83
2019-04-04T06:15:07.229Z,10.93
2019-04-04T06:17:38.729Z,11.20
2019-04-04T06:20:07.526Z,11.83
2019-04-04T06:22:35.905Z,11.50
2019-04-04T06:25:05.810Z,10.80
2019-04-04T06:27:34.181Z,11.13
2019-04-04T06:30:02.643Z,11.83
2019-04-04T06:32:31.611Z,11.20
2019-04-04T06:35:00.151Z,10.70
2019-04-04T06:37:28.574Z,10.63
2019-04-04T06:39:58.892Z,11.27
2019-04-04T06:42:27.160Z,11.20
2019-04-04T06:44:55.562Z,10.87
2019-04-04T06:47:25.502Z,12.00
2019-04-04T06:49:54.034Z,11.83
2019-04-04T06:52:23.527Z,10.83
2019-04-04T06:54:52.022Z,10.87
2019-04-04T06:57:20.395Z,10.73
2019-04-04T06:59:51.119Z,11.50
2019-04-04T07:02:18.882Z,10.40
2019-04-04T07:04:47.313Z,11.87
2019-04-04T07:07:15.693Z,11.33
2019-04-04T07:09:44.083Z,11.07
2019-04-04T07:12:22.390Z,11.60
2019-04-04T07:14:46.263Z,10.67
2019-04-04T07:17:12.571Z,10.83
2019-04-04T07:19:40.989Z,11.37
2019-04-04T07:22:09.481Z,11.13
2019-04-04T07:24:37.888Z,11.37
2019-04-04T07:27:06.272Z,10.77
2019-04-04T07:29:34.698Z,11.07
2019-04-04T07:32:03.112Z,11.10
2019-04-04T07:34:31.503Z,10.60
2019-04-04T07:36:59.915Z,11.50
2019-04-04T07:39:31.963Z,11.40
2019-04-04T07:41:58.389Z,11.43
2019-04-04T07:44:26.756Z,12.07
2019-04-04T07:46:55.168Z,11.33
2019-04-04T07:49:23.934Z,11.10
2019-04-04T07:51:52.435Z,11.20
2019-04-04T07:54:20.918Z,10.77
2019-04-04T07:56:49.285Z,11.83
2019-04-04T07:59:17.687Z,11.40
2019-04-04T08:01:51.436Z,12.00
2019-04-04T08:04:16.363Z,12.83
2019-04-04T08:06:44.758Z,15.50
2019-04-04T08:09:13.330Z,12.33
2019-04-04T08:11:41.742Z,12.03
2019-04-04T08:14:10.125Z,12.30
2019-04-04T08:16:38.622Z,12.93
2019-04-04T08:19:07.045Z,12.30
2019-04-04T08:21:35.440Z,16.27
2019-04-04T08:24:03.818Z,20.03
2019-04-04T08:26:32.237Z,20.43
2019-04-04T08:29:00.654Z,18.47
2019-04-04T08:31:29.044Z,18.40
2019-04-04T08:33:57.580Z,19.07
2019-04-04T08:36:26.051Z,18.07
2019-04-04T08:38:54.481Z,19.03
2019-04-04T08:41:22.917Z,17.47
2019-04-04T08:43:51.322Z,16.20
2019-04-04T08:46:20.181Z,15.57
2019-04-04T08:48:48.627Z,16.47
2019-04-04T08:51:17.022Z,17.40
2019-04-04T08:53:45.416Z,18.70
2019-04-04T08:56:13.831Z,18.97
2019-04-04T08:58:42.223Z,19.60
2019-04-04T09:01:10.648Z,20.47
2019-04-04T09:03:39.070Z,21.50
2019-04-04T09:06:07.445Z,21.60
2019-04-04T09:08:35.852Z,21.83
2019-04-04T09:11:04.257Z,25.43
2019-04-04T09:13:32.674Z,25.87
2019-04-04T09:16:01.072Z,26.37
2019-04-04T09:18:29.476Z,27.03
2019-04-04T09:20:57.968Z,24.87
2019-04-04T09:23:26.432Z,25.67
2019-04-04T09:26:04.931Z,24.13
2019-04-04T09:28:24.884Z,24.23
2019-04-04T09:30:53.291Z,23.77
2019-04-04T09:33:21.683Z,22.67
2019-04-04T09:35:50.110Z,23.00
2019-04-04T09:38:18.518Z,23.57
2019-04-04T09:40:46.927Z,25.90
2019-04-04T09:43:15.400Z,26.37
2019-04-04T09:45:43.796Z,24.23
2019-04-04T09:48:12.258Z,26.07
2019-04-04T09:50:40.667Z,26.00
2019-04-04T09:53:09.071Z,21.97
2019-04-04T09:55:37.514Z,22.60
2019-04-04T09:58:05.906Z,24.97
2019-04-04T10:00:34.325Z,25.63
2019-04-04T10:03:02.745Z,26.30
2019-04-04T10:05:31.510Z,26.87
2019-04-04T10:07:59.958Z,24.97
2019-04-04T10:10:28.338Z,22.67
2019-04-04T10:12:56.936Z,22.10
2019-04-04T10:15:25.307Z,23.07
2019-04-04T10:17:53.716Z,20.40
2019-04-04T10:20:22.108Z,18.73
2019-04-04T10:22:50.553Z,18.47
2019-04-04T10:25:18.944Z,17.53
2019-04-04T10:27:47.367Z,16.47
2019-04-04T10:30:15.793Z,16.60
2019-04-04T10:32:44.166Z,14.03
2019-04-04T10:35:12.601Z,15.90
2019-04-04T10:37:40.993Z,15.63
2019-04-04T10:40:09.435Z,14.53
2019-04-04T10:42:37.841Z,13.20
2019-04-04T10:45:06.964Z,13.77
2019-04-04T10:47:35.394Z,12.40
2019-04-04T10:50:06.069Z,13.43
2019-04-04T10:52:34.472Z,12.77
2019-04-04T10:55:02.886Z,11.07
2019-04-04T10:57:31.276Z,10.57
2019-04-04T11:00:02.999Z,10.30
2019-04-04T11:02:29.952Z,10.07
2019-04-04T11:04:58.363Z,10.67
2019-04-04T11:07:26.756Z,10.93
2019-04-04T11:09:55.163Z,11.50
2019-04-04T11:12:23.563Z,11.67
2019-04-04T11:14:51.993Z,11.13
2019-04-04T11:17:20.379Z,11.83
2019-04-04T11:19:48.804Z,11.17
2019-04-04T11:22:17.193Z,11.00
2019-04-04T11:24:45.703Z,10.87
2019-04-04T11:27:17.266Z,9.87
2019-04-04T11:29:44.208Z,9.83
2019-04-04T11:32:12.616Z,9.77
2019-04-04T11:34:52.626Z,8.87
2019-04-04T11:37:11.046Z,9.87
2019-04-04T11:39:39.517Z,10.60
2019-04-04T11:42:07.922Z,10.87
2019-04-04T11:44:36.353Z,11.07
2019-04-04T11:47:04.750Z,12.17
2019-04-04T11:49:33.126Z,10.93
2019-04-04T11:52:01.561Z,12.27
2019-04-04T11:54:29.983Z,12.50
2019-04-04T11:56:58.369Z,11.37
2019-04-04T11:59:26.877Z,11.73
2019-04-04T12:01:55.185Z,11.87
2019-04-04T12:04:23.608Z,12.43
2019-04-04T12:06:52.013Z,12.97
2019-04-04T12:09:20.431Z,12.40
2019-04-04T12:11:48.824Z,11.27
2019-04-04T12:14:17.291Z,12.40
2019-04-04T12:16:45.696Z,13.33
2019-04-04T12:19:14.072Z,13.10
2019-04-04T12:21:42.489Z,12.23
2019-04-04T12:24:10.880Z,12.07
2019-04-04T12:26:39.287Z,11.50
2019-04-04T12:29:07.681Z,11.17
2019-04-04T12:31:36.117Z,10.13
2019-04-04T12:34:04.515Z,10.30
2019-04-04T12:36:32.924Z,10.50
2019-04-04T12:39:01.373Z,10.93
2019-04-04T12:41:29.791Z,9.00
2019-04-04T12:43:58.211Z,8.63
2019-04-04T12:46:26.593Z,8.37
2019-04-04T12:48:55.003Z,8.03
2019-04-04T12:51:23.383Z,7.80
2019-04-04T12:53:51.812Z,8.33
2019-04-04T12:56:20.198Z,8.10
2019-04-04T12:58:48.724Z,8.40
2019-04-04T13:01:17.098Z,8.93
2019-04-04T13:03:45.551Z,7.50
2019-04-04T13:06:13.970Z,8.07
2019-04-04T13:08:42.356Z,7.33
2019-04-04T13:11:10.755Z,7.67
2019-04-04T13:13:39.174Z,7.97
2019-04-04T13:16:07.595Z,6.97
2019-04-04T13:18:36.000Z,7.33
2019-04-04T13:21:04.419Z,6.00
2019-04-04T13:23:32.898Z,5.70
2019-04-04T13:26:01.296Z,5.07
2019-04-04T13:28:29.702Z,5.87
2019-04-04T13:30:58.309Z,6.63
2019-04-04T13:33:26.742Z,7.20
2019-04-04T13:35:55.149Z,5.87
2019-04-04T13:38:23.538Z,6.03
2019-04-04T13:40:51.942Z,6.37
2019-04-04T13:43:22.399Z,6.40
2019-04-04T13:45:50.382Z,6.30
2019-04-04T13:48:18.728Z,5.33
2019-04-04T13:50:47.160Z,6.13
2019-04-04T13:53:15.557Z,4.17
2019-04-04T13:55:44.023Z,3.83
2019-04-04T13:58:12.483Z,5.83
2019-04-04T14:00:40.897Z,5.93
2019-04-04T14:03:09.294Z,5.83
2019-04-04T14:05:37.669Z,5.83
2019-04-04T14:08:06.085Z,6.00
2019-04-04T14:10:34.913Z,5.40
2019-04-04T14:13:03.400Z,5.10
2019-04-04T14:15:31.780Z,4.57
2019-04-04T14:18:00.197Z,4.83
2019-04-04T14:20:28.629Z,6.13
2019-04-04T14:22:57.040Z,5.20
2019-04-04T14:25:25.464Z,5.13
2019-04-04T14:27:53.939Z,4.73
2019-04-04T14:30:22.352Z,5.10
2019-04-04T14:32:50.766Z,4.87
2019-04-04T14:35:19.181Z,5.33
2019-04-04T14:37:47.702Z,4.77
2019-04-04T14:40:16.112Z,5.00
2019-04-04T14:42:44.502Z,4.20
2019-04-04T14:45:12.880Z,4.30
2019-04-04T14:47:41.293Z,4.37
2019-04-04T14:50:09.686Z,4.60
2019-04-04T14:52:39.571Z,4.57
2019-04-04T14:55:08.192Z,4.27
2019-04-04T14:57:36.621Z,4.67
2019-04-04T15:00:08.642Z,4.50
2019-04-04T15:02:37.066Z,4.60
2019-04-04T15:05:06.140Z,4.47
2019-04-04T15:07:34.534Z,4.43
2019-04-04T15:10:02.975Z,4.80
2019-04-04T15:12:31.372Z,4.70
2019-04-04T15:14:59.789Z,4.33
2019-04-04T15:17:28.195Z,5.17
2019-04-04T15:19:56.621Z,4.53
2019-04-04T15:22:25.007Z,5.05
2019-04-04T15:24:53.390Z,4.23
2019-04-04T15:27:21.828Z,4.60
2019-04-04T15:29:50.243Z,4.83
2019-04-04T15:32:18.643Z,4.43
2019-04-04T15:34:47.013Z,4.30
2019-04-04T15:37:15.431Z,4.53
2019-04-04T15:39:43.823Z,4.87
2019-04-04T15:42:12.205Z,4.83
2019-04-04T15:44:40.611Z,4.70
2019-04-04T15:47:09.001Z,4.57
2019-04-04T15:49:37.407Z,4.73
2019-04-04T15:52:05.785Z,5.10
2019-04-04T15:54:34.209Z,4.90
2019-04-04T15:57:02.602Z,4.40
2019-04-04T15:59:31.006Z,4.87
2019-04-04T16:01:59.413Z,4.80
2019-04-04T16:04:27.829Z,6.30
2019-04-04T16:06:56.280Z,4.50
2019-04-04T16:09:24.651Z,4.40
2019-04-04T16:11:53.055Z,4.50
2019-04-04T16:14:21.451Z,5.07
2019-04-04T16:16:49.856Z,4.80
2019-04-04T16:19:18.648Z,4.33
2019-04-04T16:21:47.067Z,5.20
2019-04-04T16:24:15.487Z,5.20
2019-04-04T16:26:43.869Z,5.17
2019-04-04T16:29:12.279Z,4.93
2019-04-04T16:31:40.699Z,6.87
2019-04-04T16:34:09.083Z,5.97
2019-04-04T16:36:37.570Z,5.50
2019-04-04T16:39:07.660Z,6.83
2019-04-04T16:41:36.123Z,5.20
2019-04-04T16:44:05.031Z,5.20
2019-04-04T16:46:33.399Z,5.97
2019-04-04T16:49:01.790Z,5.10
2019-04-04T16:51:30.177Z,5.00
2019-04-04T16:53:58.585Z,5.03
2019-04-04T16:56:26.959Z,5.80
2019-04-04T16:58:55.474Z,5.27
2019-04-04T17:01:23.863Z,5.00
2019-04-04T17:04:01.450Z,5.67
2019-04-04T17:06:22.648Z,5.40
2019-04-04T17:08:51.054Z,5.67
2019-04-04T17:11:19.517Z,5.17
2019-04-04T17:13:47.899Z,5.33
2019-04-04T17:16:16.313Z,5.13
2019-04-04T17:18:44.736Z,5.00
2019-04-04T17:21:13.138Z,5.67
2019-04-04T17:23:41.624Z,5.27
2019-04-04T17:26:10.024Z,5.43
2019-04-04T17:28:38.589Z,5.53
2019-04-04T17:31:08.345Z,5.60
2019-04-04T17:33:37.076Z,5.20
2019-04-04T17:36:05.873Z,4.97
2019-04-04T17:38:34.623Z,4.53
2019-04-04T17:41:03.356Z,5.53
2019-04-04T17:43:31.726Z,5.10
2019-04-04T17:46:00.140Z,5.10
2019-04-04T17:48:31.518Z,4.90
2019-04-04T17:50:58.929Z,5.13
2019-04-04T17:53:27.325Z,4.70
2019-04-04T17:55:56.169Z,5.33
2019-04-04T17:58:24.652Z,5.00
2019-04-04T18:00:53.032Z,4.80
2019-04-04T18:03:21.408Z,4.90
2019-04-04T18:05:49.822Z,5.20
2019-04-04T18:08:18.263Z,5.30
2019-04-04T18:10:46.655Z,5.40
2019-04-04T18:13:15.144Z,5.07
2019-04-04T18:15:43.520Z,5.27
2019-04-04T18:18:11.931Z,5.33
2019-04-04T18:20:40.382Z,4.63
2019-04-04T18:23:08.762Z,5.40
2019-04-04T18:25:38.242Z,5.20
2019-04-04T18:28:07.568Z,5.57
2019-04-04T18:30:36.504Z,4.77
2019-04-04T18:33:04.919Z,7.83
2019-04-04T18:35:33.674Z,5.30
2019-04-04T18:38:02.463Z,5.70
2019-04-04T18:40:31.460Z,5.90
2019-04-04T18:42:59.860Z,5.53
2019-04-04T18:45:28.243Z,5.83
2019-04-04T18:47:56.645Z,6.17
2019-04-04T18:50:25.061Z,6.83
2019-04-04T18:52:53.459Z,7.60
2019-04-04T18:55:21.877Z,7.30
2019-04-04T18:57:50.260Z,7.67
2019-04-04T19:00:18.726Z,7.70
2019-04-04T19:02:47.118Z,8.73
2019-04-04T19:05:15.519Z,7.87
2019-04-04T19:07:43.932Z,8.83
2019-04-04T19:10:12.307Z,8.20
2019-04-04T19:12:40.736Z,8.63
2019-04-04T19:15:09.109Z,8.40
2019-04-04T19:17:37.517Z,8.43
2019-04-04T19:20:09.705Z,8.70
2019-04-04T19:22:37.480Z,9.27
2019-04-04T19:25:06.421Z,12.13
2019-04-04T19:27:34.832Z,10.73
2019-04-04T19:30:04.911Z,9.30
2019-04-04T19:32:33.290Z,9.50
2019-04-04T19:35:01.692Z,9.03
2019-04-04T19:37:30.077Z,10.63
2019-04-04T19:39:58.479Z,9.70
2019-04-04T19:42:26.887Z,10.07
2019-04-04T19:44:55.303Z,9.83
2019-04-04T19:47:23.745Z,10.20
2019-04-04T19:49:52.113Z,11.77
2019-04-04T19:52:20.529Z,11.17
2019-04-04T19:54:48.915Z,11.37
2019-04-04T19:57:17.398Z,11.70
2019-04-04T19:59:45.780Z,11.63
2019-04-04T20:02:14.187Z,11.30
2019-04-04T20:04:42.607Z,12.87
2019-04-04T20:07:11.021Z,12.70
2019-04-04T20:09:39.500Z,11.57
2019-04-04T20:12:07.976Z,12.47
2019-04-04T20:14:38.277Z,12.27
2019-04-04T20:17:06.429Z,14.00
2019-04-04T20:19:34.817Z,14.60
2019-04-04T20:22:03.212Z,13.73
2019-04-04T20:24:31.612Z,14.70
2019-04-04T20:27:00.016Z,15.70
2019-04-04T20:29:28.431Z,15.77
2019-04-04T20:31:56.852Z,17.10
2019-04-04T20:34:25.293Z,17.43
2019-04-04T20:36:53.708Z,17.50
2019-04-04T20:39:22.109Z,18.90
2019-04-04T20:41:50.585Z,19.80
2019-04-04T20:44:19.008Z,20.13
2019-04-04T20:46:47.412Z,21.27
2019-04-04T20:49:15.809Z,21.23
2019-04-04T20:51:44.184Z,22.27
2019-04-04T20:54:12.592Z,23.60
2019-04-04T20:56:41.035Z,24.20
2019-04-04T20:59:09.452Z,25.63
2019-04-04T21:01:37.871Z,24.10
2019-04-04T21:04:06.295Z,25.50
2019-04-04T21:06:34.727Z,24.67
2019-04-04T21:09:04.602Z,25.43
2019-04-04T21:11:33.010Z,26.37
2019-04-04T21:14:01.412Z,26.07
2019-04-04T21:16:29.862Z,26.47
2019-04-04T21:18:58.389Z,26.53
2019-04-04T21:21:26.877Z,26.93
2019-04-04T21:23:55.284Z,26.93
2019-04-04T21:26:23.704Z,29.33
2019-04-04T21:28:52.117Z,29.23
2019-04-04T21:31:20.495Z,28.57
2019-04-04T21:33:48.915Z,29.47
2019-04-04T21:36:17.296Z,29.47
2019-04-04T21:38:45.720Z,30.53
2019-04-04T21:41:14.128Z,30.63
2019-04-04T21:43:42.540Z,30.20
2019-04-04T21:46:10.911Z,30.43
2019-04-04T21:48:39.297Z,32.20
2019-04-04T21:51:07.720Z,33.00
2019-04-04T21:53:36.106Z,30.80
2019-04-04T21:56:04.507Z,32.13
2019-04-04T21:58:32.907Z,32.30
2019-04-04T22:01:01.393Z,33.77
2019-04-04T22:03:29.773Z,34.60
2019-04-04T22:05:58.232Z,33.53
2019-04-04T22:08:26.669Z,35.17
2019-04-04T22:10:55.075Z,35.47
2019-04-04T22:13:23.518Z,35.33
2019-04-04T22:15:52.008Z,35.43
2019-04-04T22:18:20.383Z,35.83
2019-04-04T22:20:48.875Z,36.07
2019-04-04T22:23:17.275Z,34.77
2019-04-04T22:25:45.680Z,35.47
2019-04-04T22:28:14.134Z,34.07
2019-04-04T22:30:43.667Z,36.20
2019-04-04T22:33:12.085Z,38.33
2019-04-04T22:35:40.536Z,36.30
2019-04-04T22:38:08.945Z,39.07
2019-04-04T22:40:37.405Z,36.43
2019-04-04T22:43:05.831Z,37.60
2019-04-04T22:45:34.215Z,36.87
2019-04-04T22:48:02.628Z,37.80
2019-04-04T22:50:31.030Z,37.57
2019-04-04T22:52:59.420Z,36.60
2019-04-04T22:55:27.925Z,36.13
2019-04-04T22:57:56.313Z,35.13
2019-04-04T23:00:24.798Z,35.57
2019-04-04T23:02:53.245Z,37.37
2019-04-04T23:05:21.685Z,37.83
2019-04-04T23:07:50.109Z,35.57
2019-04-04T23:10:18.480Z,35.30
2019-04-04T23:12:46.925Z,37.57
2019-04-04T23:15:15.475Z,37.50
2019-04-04T23:17:45.519Z,37.17
2019-04-04T23:20:14.175Z,35.93
2019-04-04T23:22:52.138Z,35.90
2019-04-04T23:25:12.636Z,36.87
2019-04-04T23:27:41.093Z,35.33
2019-04-04T23:30:09.483Z,34.53
2019-04-04T23:32:37.904Z,35.60
2019-04-04T23:35:06.948Z,34.53
2019-04-04T23:37:35.378Z,33.87
2019-04-04T23:40:03.871Z,34.60
2019-04-04T23:42:32.254Z,34.30
2019-04-04T23:45:01.607Z,35.97
2019-04-04T23:47:42.176Z,33.47
2019-04-04T23:50:00.259Z,33.97
2019-04-04T23:52:28.664Z,33.20
2019-04-04T23:54:57.080Z,34.83
2019-04-04T23:57:25.493Z,34.07
2019-04-04T23:59:53.905Z,35.47
